UNTT/TOF METAR and TAF weather

Enter ICAO airport designator
Station Type Date Time Source
UNTT METAR 2019/09/21 05:30 UTC NOAA

UNTT 210530Z 24008G16MPS 9999 FEW042 14/03 Q1017 WS R21 R21/090060 NOSIG RMK QFE748


Station Type Date Time Source
UNTT Decoded METAR 2019/09/21 05:30 UTC NOAA

Station name not available
Sep 21, 2019 - 01:30 AM EDT / 2019.09.21 0530 UTC
Wind: from the WSW (240 degrees) at 18 MPH (16 KT) gusting to 36 MPH (31 KT):0
Visibility: greater than 7 mile(s):0
Sky conditions: mostly clear
Temperature: 57 F (14 C)
Dew Point: 37 F (3 C)
Relative Humidity: 47%
Pressure (altimeter): 30.03 in. Hg (1017 hPa)
ob: UNTT 210530Z 24008G16MPS 9999 FEW042 14/03 Q1017 WS R21 R21/090060 NOSIG RMK QFE748
cycle: 5

Station Type Date Time Source
UNTT TAF UTC NOAA

Error!

Example: see airport list